Latest Coastal Weather Observations for Wadeye (Port Keats)

IDD60701

Issued at 12:01 pm CST Sunday 2 August 2015 (issued every 10 minutes, with the page automatically refreshed every 10 minutes)

About coastal observations | Map of coastal stations | Coastal observations for NT | Marine services | Other Formats
Station Details ID: 014948 Name: PORT KEATS AIRPORT Lat: -14.25 Lon: 129.53 Height: 28.0 m
Data from the previous 72 hours. | See also: Recent months at Wadeye (Port Keats)
Date/Time
CST
Temp

°C
Wind Pressure Rain
since 9am
mm
Weather Cloud Vis
km
Sea
Height
m
Swell
Dir
 
Speed
knots
Gust
knots
hPa Trend Height
m
Period
s
Dir
02/12:00pm 29.4 N 8 11 1016.4 - 0.0 - - - - - - -
02/11:30am 29.2 NNE 8 13 1016.6 - 0.0 - - - - - - -
02/11:00am 29.2 NE 6 9 1016.8 - 0.0 - - - - - - -
02/10:30am 28.3 NE 9 14 1016.9 - 0.0 - - - - - - -
02/10:00am 27.4 E 8 11 1016.8 - 0.0 - - - - - - -
02/09:30am 26.0 E 6 10 1016.5 - 0.0 - - - - - - -
02/09:00am 24.6 E 3 5 1016.2 - 0.0 - - - - - - -
02/08:30am 20.4 CALM 0 0 1015.9 - 0.0 - - - - - - -
02/08:00am 18.3 ENE 3 4 1015.7 - 0.0 - - - - - - -
02/07:30am 14.8 CALM 0 0 1015.1 - 0.0 - - - - - - -
02/07:00am 15.2 CALM 0 0 1014.7 - 0.0 - - - - - - -
02/06:30am 14.8 CALM 0 0 1014.4 - 0.0 - - - - - - -
02/06:00am 14.7 CALM 0 0 1014.2 - 0.0 - - - - - - -
02/05:30am 14.6 CALM 0 0 1014.1 - 0.0 - - - - - - -
02/05:00am 14.7 CALM 0 0 1014.1 - 0.0 - - - - - - -
02/04:30am 14.7 SSW 2 4 1014.1 - 0.0 - - - - - - -
02/04:00am 15.0 CALM 0 0 1014.1 - 0.0 - - - - - - -
02/03:30am 15.6 CALM 0 0 1014.1 - 0.0 - - - - - - -
02/03:00am 15.4 SSW 1 5 1014.2 - 0.0 - - - - - - -
02/02:30am 16.1 CALM 0 0 1014.5 - 0.0 - - - - - - -
02/02:00am 17.4 E 1 3 1014.5 - 0.0 - - - - - - -
02/01:30am 16.2 S 3 5 1014.5 - 0.0 - - - - - - -
02/01:00am 16.5 SSW 2 4 1014.4 - 0.0 - - - - - - -
02/12:30am 16.9 S 2 5 1014.6 - 0.0 - - - - - - -
02/12:00am 17.4 S 3 5 1014.5 - 0.0 - - - - - - -
 
Date/Time
CST
Temp

°C
Wind Pressure Rain
since 9am
mm
Weather Cloud Vis
km
Sea
Height
m
Swell
Dir
 
Speed
knots
Gust
knots
hPa Trend Height
m
Period
s
Dir
01/11:30pm 18.3 CALM 0 0 1014.6 - 0.0 - - - - - - -
01/11:00pm 18.5 CALM 0 0 1014.4 - 0.0 - - - - - - -
01/10:30pm 19.0 CALM 0 0 1014.4 - 0.0 - - - - - - -
01/10:00pm 19.4 CALM 0 0 1014.4 - 0.0 - - - - - - -
01/09:30pm 20.1 CALM 0 0 1014.2 - 0.0 - - - - - - -
01/09:00pm 21.3 CALM 0 0 1013.9 - 0.0 - - - - - - -
01/08:30pm 22.2 CALM 0 0 1013.6 - 0.0 - - - - - - -
01/08:00pm 22.7 CALM 0 2 1013.4 - 0.0 - - - - - - -
01/07:30pm 23.6 SW 3 4 1013.1 - 0.0 - - - - - - -
01/07:00pm 24.8 WSW 3 4 1012.7 - 0.0 - - - - - - -
01/06:30pm 26.2 W 4 6 1012.6 - 0.0 - - - - - - -
01/06:00pm 27.7 W 5 8 1012.5 - 0.0 - - - - - - -
01/05:30pm 28.6 WNW 5 9 1012.5 - 0.0 - - - - - - -
01/05:00pm 29.1 WNW 6 10 1012.6 - 0.0 - - - - - - -
01/04:30pm 29.2 WNW 7 10 1012.6 - 0.0 - - - - - - -
01/04:00pm 29.3 WNW 8 12 1012.6 - 0.0 - - - - - - -
01/03:30pm 30.0 NW 7 11 1012.8 - 0.0 - - - - - - -
01/03:00pm 29.8 NNW 9 12 1013.1 - 0.0 - - - - - - -
01/02:30pm 29.5 NW 9 13 1013.5 - 0.0 - - - - - - -
01/02:00pm 30.7 NNW 9 13 1013.8 - 0.0 - - - - - - -
01/01:30pm 30.7 NNW 8 11 1014.3 - 0.0 - - - - - - -
01/01:00pm 29.7 N 8 11 1014.8 - 0.0 - - - - - - -
01/12:30pm 29.5 N 8 11 1015.4 - 0.0 - - - - - - -
01/12:00pm 29.0 N 7 10 1015.8 - 0.0 - - - - - - -
01/11:30am 28.9 N 7 9 1016.3 - 0.0 - - - - - - -
01/11:00am 28.4 N 5 8 1016.4 - 0.0 - - - - - - -
01/10:30am 27.8 ENE 4 8 1016.5 - 0.0 - - - - - - -
01/10:00am 26.7 E 4 6 1016.5 - 0.0 - - - - - - -
01/09:30am 25.8 ENE 3 5 1016.3 - 0.0 - - - - - - -
01/09:00am 24.0 NE 3 4 1015.8 - 0.0 - - - - - - -
01/08:30am 21.9 CALM 0 0 1015.3 - 0.0 - - - - - - -
01/08:00am 18.4 S 1 4 1015.0 - 0.0 - - - - - - -
01/07:30am 16.5 S 3 5 1014.7 - 0.0 - - - - - - -
01/07:00am 15.6 CALM 0 0 1014.5 - 0.0 - - - - - - -
01/06:30am 16.1 CALM 0 0 1014.5 - 0.0 - - - - - - -
01/06:00am 15.9 CALM 0 0 1014.2 - 0.0 - - - - - - -
01/05:30am 16.0 CALM 0 0 1014.0 - 0.0 - - - - - - -
01/05:00am 16.4 CALM 0 0 1014.0 - 0.0 - - - - - - -
01/04:30am 16.1 CALM 0 0 1013.8 - 0.0 - - - - - - -
01/04:00am 16.5 CALM 0 0 1013.8 - 0.0 - - - - - - -
01/03:30am 16.6 CALM 0 0 1013.8 - 0.0 - - - - - - -
01/03:00am 16.6 CALM 0 0 1013.9 - 0.0 - - - - - - -
01/02:30am 16.9 CALM 0 0 1014.1 - 0.0 - - - - - - -
01/02:00am 17.3 CALM 0 0 1014.0 - 0.0 - - - - - - -
01/01:30am 18.1 CALM 0 0 1014.1 - 0.0 - - - - - - -
01/01:00am 18.5 CALM 0 0 1014.3 - 0.0 - - - - - - -
01/12:30am 19.0 CALM 0 0 1014.2 - 0.0 - - - - - - -
01/12:00am 19.4 CALM 0 0 1014.3 - 0.0 - - - - - - -
 
Date/Time
CST
Temp

°C
Wind Pressure Rain
since 9am
mm
Weather Cloud Vis
km
Sea
Height
m
Swell
Dir
 
Speed
knots
Gust
knots
hPa Trend Height
m
Period
s
Dir
31/11:30pm 21.0 CALM 0 0 1014.5 - 0.0 - - - - - - -
31/11:00pm 21.4 E 2 7 1014.2 - 0.0 - - - - - - -
31/10:30pm 22.0 SSW 4 6 1014.0 - 0.0 - - - - - - -
31/10:00pm 22.1 SW 5 7 1013.9 - 0.0 - - - - - - -
31/09:30pm 21.8 SW 4 6 1013.7 - 0.0 - - - - - - -
31/09:00pm 21.5 SW 4 5 1013.7 - 0.0 - - - - - - -
31/08:30pm 22.3 SW 4 5 1013.5 - 0.0 - - - - - - -
31/08:00pm 22.8 SW 4 5 1013.0 - 0.0 - - - - - - -
31/07:30pm 23.8 SW 4 6 1012.8 - 0.0 - - - - - - -
31/07:00pm 24.9 WSW 4 6 1012.5 - 0.0 - - - - - - -
31/06:30pm 26.2 WSW 4 6 1012.3 - 0.0 - - - - - - -
31/06:00pm 27.6 W 6 9 1012.0 - 0.0 - - - - - - -
31/05:30pm 28.4 WNW 7 11 1011.8 - 0.0 - - - - - - -
31/05:00pm 29.5 W 7 10 1011.7 - 0.0 - - - - - - -
31/04:30pm 30.2 W 7 11 1011.6 - 0.0 - - - - - - -
31/04:00pm 31.1 WNW 7 11 1011.6 - 0.0 - - - - - - -
31/03:30pm 32.4 SE 3 7 1012.0 - 0.0 - - - - - - -
31/03:00pm 32.5 NE 8 11 1012.4 - 0.0 - - - - - - -
31/02:30pm 32.4 ESE 4 11 1012.8 - 0.0 - - - - - - -
31/02:00pm 31.7 ESE 8 13 1013.4 - 0.0 - - - - - - -
31/01:30pm 31.6 SE 7 15 1013.9 - 0.0 - - - - - - -
31/01:00pm 31.7 E 10 17 1014.5 - 0.0 - - - - - - -
31/12:30pm 31.3 ENE 12 20 1015.1 - 0.0 - - - - - - -
31/12:00pm 30.7 E 11 18 1015.6 - 0.0 - - - - - - -
31/11:30am 30.2 ENE 10 15 1016.1 - 0.0 - - - - - - -
31/11:00am 28.9 ENE 10 17 1016.5 - 0.0 - - - - - - -
31/10:30am 28.5 E 10 15 1016.7 - 0.0 - - - - - - -
31/10:00am 27.8 ENE 8 12 1016.8 - 0.0 - - - - - - -
31/09:30am 26.4 E 7 11 1016.7 - 0.0 - - - - - - -
31/09:00am 24.9 ESE 8 11 1016.5 - 0.0 - - - - - - -
31/08:30am 23.6 SE 8 10 1016.2 - 0.0 - - - - - - -
31/08:00am 22.6 SE 8 10 1016.0 - 0.0 - - - - - - -
31/07:44am 22.1 SE 7 10 1015.9 - 0.0 - - - - - - -
31/07:30am 17.1 SE 5 7 1015.8 - 0.0 - - - - - - -
31/07:00am 20.8 ESE 4 5 1015.5 - 0.0 - - - - - - -
31/06:30am 22.6 ESE 6 8 1015.2 - 0.0 - - - - - - -
31/06:00am 22.6 SE 6 8 1015.0 - 0.0 - - - - - - -
31/05:30am 20.7 SE 6 8 1014.7 - 0.0 - - - - - - -
31/05:00am 23.2 SE 8 11 1014.8 - 0.0 - - - - - - -
31/04:51am 23.0 SE 6 9 1014.8 - 0.0 - - - - - - -
31/04:30am 17.9 SSE 4 5 1014.7 - 0.0 - - - - - - -
31/04:00am 18.0 SSE 4 5 1014.7 - 0.0 - - - - - - -
31/03:30am 17.9 SSE 5 6 1014.7 - 0.0 - - - - - - -
31/03:00am 19.1 SSE 4 5 1015.0 - 0.0 - - - - - - -
31/02:30am 20.0 SSE 4 6 1015.1 - 0.0 - - - - - - -
31/02:00am 20.9 SSE 5 6 1015.3 - 0.0 - - - - - - -
31/01:30am 20.5 SSE 3 5 1015.6 - 0.0 - - - - - - -
31/01:00am 22.3 S 4 6 1015.6 - 0.0 - - - - - - -
31/12:30am 21.3 S 4 6 1015.8 - 0.0 - - - - - - -
31/12:00am 23.0 SSE 6 8 1015.9 - 0.0 - - - - - - -
 
Date/Time
CST
Temp

°C
Wind Pressure Rain
since 9am
mm
Weather Cloud Vis
km
Sea
Height
m
Swell
Dir
 
Speed
knots
Gust
knots
hPa Trend Height
m
Period
s
Dir
30/11:30pm 23.0 S 5 7 1016.1 - 0.0 - - - - - - -
30/11:00pm 24.7 SSE 6 7 1016.2 - 0.0 - - - - - - -
30/10:30pm 24.6 SSE 4 5 1016.1 - 0.0 - - - - - - -
30/10:00pm 25.3 S 5 7 1016.1 - 0.0 - - - - - - -
30/09:30pm 25.5 S 5 8 1015.9 - 0.0 - - - - - - -
30/09:00pm 25.8 S 5 9 1015.6 - 0.0 - - - - - - -
30/08:30pm 25.6 S 5 7 1015.3 - 0.0 - - - - - - -
30/08:00pm 26.1 SSW 5 7 1014.7 - 0.0 - - - - - - -
30/07:30pm 27.0 SSW 5 7 1014.5 - 0.0 - - - - - - -
30/07:00pm 27.9 SSW 5 8 1014.2 - 0.0 - - - - - - -
30/06:30pm 29.1 SSW 6 11 1013.8 - 0.0 - - - - - - -
30/06:00pm 30.5 SSW 6 10 1013.7 - 0.0 - - - - - - -
30/05:30pm 32.1 SSE 7 12 1013.3 - 0.0 - - - - - - -
30/05:00pm 32.5 SSE 10 18 1013.3 - 0.0 - - - - - - -
30/04:30pm 32.5 SE 12 18 1013.3 - 0.0 - - - - - - -
30/04:00pm 33.0 SSE 11 16 1013.5 - 0.0 - - - - - - -
30/03:30pm 32.8 SSE 9 15 1013.7 - 0.0 - - - - - - -
30/03:00pm 33.4 ESE 6 13 1014.1 - 0.0 - - - - - - -
30/02:30pm 33.5 SE 8 13 1014.5 - 0.0 - - - - - - -
30/02:00pm 32.4 E 8 13 1015.1 - 0.0 - - - - - - -
30/01:30pm 32.7 E 8 12 1015.7 - 0.0 - - - - - - -
30/01:00pm 32.1 ESE 10 16 1016.2 - 0.0 - - - - - - -
30/12:30pm 32.1 ESE 11 16 1016.8 - 0.0 - - - - - - -

Other Formats:

Comma delimited format used in spreadsheet applications
http://www.bom.gov.au/fwo/IDD60701/IDD60701.95111.axf

JavaScript Object Notation format (JSON) in row-major order
http://www.bom.gov.au/fwo/IDD60701/IDD60701.95111.json